Time;durP1;ratioP1;P1;durP2;ratioP2;P2;SDS_P1;SDS_P2;PMS_P1;PMS_P2;Temp;Humidity;BMP_temperature;BMP_pressure;BME280_temperature;BME280_humidity;BME280_pressure;Samples;Min_cycle;Max_cycle;Signal;HPM_P1;HPM_P2
2021/10/30 00:01:39;;;;;;;49.95;20.52;;;;;;;9.35;74.91;100854.88;5123700;27;20023;-71
2021/10/30 00:04:05;;;;;;;39.45;20.13;;;;;;;9.26;74.65;100855.66;5115194;28;20031;-71
2021/10/30 00:06:30;;;;;;;37.40;20.33;;;;;;;9.22;74.97;100856.88;5123140;27;20137;-71
2021/10/30 00:08:56;;;;;;;34.80;20.20;;;;;;;9.17;75.29;100851.97;5114632;28;20039;-71
2021/10/30 00:11:21;;;;;;;36.97;19.85;;;;;;;8.99;76.53;100848.19;5115456;28;20344;-71
2021/10/30 00:13:47;;;;;;;32.35;18.27;;;;;;;9.01;76.46;100859.47;5121842;27;20261;-71
2021/10/30 00:16:14;;;;;;;35.80;18.38;;;;;;;9.18;75.04;100866.00;5114946;27;20107;-70
2021/10/30 00:18:40;;;;;;;40.10;19.45;;;;;;;9.17;75.74;100867.81;5114473;28;20592;-70
2021/10/30 00:21:05;;;;;;;39.97;20.52;;;;;;;8.96;76.01;100854.56;5116481;27;20099;-70
2021/10/30 00:23:30;;;;;;;43.30;22.30;;;;;;;8.89;76.61;100860.47;5121477;27;20046;-71
2021/10/30 00:25:56;;;;;;;51.42;26.83;;;;;;;8.67;77.12;100863.97;5114593;28;20044;-71
2021/10/30 00:28:21;;;;;;;50.83;26.17;;;;;;;8.72;75.89;100861.81;5117486;27;20245;-71
2021/10/30 00:30:47;;;;;;;55.92;28.38;;;;;;;8.53;77.07;100862.44;5122925;27;20035;-71
2021/10/30 00:33:12;;;;;;;59.30;29.95;;;;;;;8.42;77.08;100857.19;5118524;27;21242;-71
2021/10/30 00:35:37;;;;;;;57.53;30.70;;;;;;;8.58;75.98;100856.78;5118491;27;20221;-71
2021/10/30 00:38:06;;;;;;;53.83;30.55;;;;;;;8.49;76.12;100850.44;5118683;27;20293;-71
2021/10/30 00:40:31;;;;;;;61.08;30.70;;;;;;;8.34;76.27;100854.31;5117480;27;20064;-71
2021/10/30 00:42:56;;;;;;;64.18;32.42;;;;;;;8.13;76.77;100838.28;5120087;27;20046;-70
2021/10/30 00:45:22;;;;;;;74.15;33.65;;;;;;;8.18;76.83;100832.66;5122138;28;20368;-70
2021/10/30 00:47:48;;;;;;;68.40;34.00;;;;;;;8.09;77.08;100836.84;5121845;27;20047;-71
2021/10/30 00:50:13;;;;;;;71.55;37.30;;;;;;;8.23;77.05;100843.69;5122804;27;20032;-71
2021/10/30 00:52:40;;;;;;;61.42;34.38;;;;;;;8.36;76.14;100840.97;5113808;28;20035;-71
2021/10/30 00:55:09;;;;;;;68.85;35.60;;;;;;;8.20;77.09;100844.75;5147140;27;20106;-71
2021/10/30 00:57:37;;;;;;;65.57;33.63;;;;;;;8.30;77.16;100848.34;5104816;28;20048;-71
2021/10/30 01:00:04;;;;;;;70.28;35.75;;;;;;;8.50;75.94;100844.22;5114554;28;20044;-71
2021/10/30 01:02:29;;;;;;;68.40;35.88;;;;;;;8.27;76.83;100843.31;5122630;28;20036;-71
2021/10/30 01:04:55;;;;;;;66.75;35.50;;;;;;;8.29;76.24;100845.84;5114255;28;20237;-71
2021/10/30 01:07:21;;;;;;;62.95;33.17;;;;;;;8.10;76.64;100842.97;5122396;27;20050;-70
2021/10/30 01:09:47;;;;;;;60.22;33.00;;;;;;;8.13;76.86;100848.00;5114056;28;20031;-70
2021/10/30 01:12:13;;;;;;;69.43;33.10;;;;;;;8.03;76.93;100847.88;5119377;28;20047;-71
2021/10/30 01:14:41;;;;;;;63.97;33.20;;;;;;;8.12;76.78;100852.44;5121895;28;20248;-71
2021/10/30 01:17:07;;;;;;;58.58;32.15;;;;;;;8.10;76.42;100835.88;5118779;28;20032;-71
2021/10/30 01:19:33;;;;;;;65.22;32.20;;;;;;;8.10;76.85;100841.16;5118364;28;20027;-71
2021/10/30 01:22:00;;;;;;;62.92;32.70;;;;;;;8.00;77.23;100834.94;5122116;28;20031;-71
2021/10/30 01:24:26;;;;;;;69.97;32.08;;;;;;;8.15;76.30;100817.06;5122322;28;20038;-71
2021/10/30 01:26:52;;;;;;;55.13;29.20;;;;;;;8.33;75.71;100828.88;5116195;28;20040;-71
2021/10/30 01:29:18;;;;;;;55.05;31.05;;;;;;;8.12;76.76;100828.69;5113611;28;20019;-71
2021/10/30 01:31:44;;;;;;;63.38;30.92;;;;;;;8.04;76.72;100824.97;5114208;28;20352;-71
2021/10/30 01:34:09;;;;;;;55.78;29.83;;;;;;;8.11;77.31;100821.75;5121193;28;20098;-70
2021/10/30 01:36:36;;;;;;;59.42;28.70;;;;;;;8.19;76.71;100832.53;5121852;28;20031;-71
2021/10/30 01:39:07;;;;;;;53.25;28.58;;;;;;;8.19;76.68;100829.91;5122389;28;20034;-71
2021/10/30 01:41:33;;;;;;;52.83;29.80;;;;;;;8.36;76.60;100818.06;5114454;28;20043;-71
2021/10/30 01:43:59;;;;;;;54.65;28.38;;;;;;;8.42;76.50;100824.66;5121786;28;20031;-71
2021/10/30 01:46:26;;;;;;;51.78;27.25;;;;;;;8.35;75.92;100815.56;5122257;28;20027;-71
2021/10/30 01:48:52;;;;;;;50.95;27.08;;;;;;;8.36;76.42;100831.25;5113659;28;20305;-71
2021/10/30 01:51:19;;;;;;;55.55;28.58;;;;;;;8.52;75.90;100825.59;5117011;28;20092;-71
2021/10/30 01:53:45;;;;;;;52.95;27.35;;;;;;;8.51;76.17;100829.22;5117911;28;20036;-71
2021/10/30 01:56:11;;;;;;;50.22;27.13;;;;;;;8.56;75.77;100821.75;5117709;28;20069;-71
2021/10/30 01:58:37;;;;;;;50.28;27.55;;;;;;;8.63;75.85;100820.31;5126397;27;20039;-70
2021/10/30 02:01:05;;;;;;;55.45;27.95;;;;;;;8.64;76.38;100814.06;5118022;28;20043;-71
2021/10/30 02:03:32;;;;;;;61.25;26.40;;;;;;;8.70;76.03;100810.09;5125668;27;20328;-71
2021/10/30 02:05:59;;;;;;;50.75;26.77;;;;;;;8.70;75.82;100816.22;5120582;27;20329;-71
2021/10/30 02:08:25;;;;;;;53.78;29.38;;;;;;;8.64;75.96;100806.16;5123451;27;20068;-71
2021/10/30 02:10:50;;;;;;;47.60;26.15;;;;;;;8.64;75.50;100814.91;5125833;27;20034;-71
2021/10/30 02:13:16;;;;;;;53.20;25.70;;;;;;;8.88;74.56;100817.34;5125231;27;20385;-71
2021/10/30 02:15:42;;;;;;;52.45;25.73;;;;;;;8.87;74.11;100814.84;5125741;27;20027;-71
2021/10/30 02:18:08;;;;;;;48.25;25.67;;;;;;;8.77;74.79;100816.56;5125119;27;20075;-71
2021/10/30 02:20:34;;;;;;;45.67;25.63;;;;;;;8.77;74.17;100816.56;5117337;27;20035;-71
2021/10/30 02:22:59;;;;;;;44.83;24.77;;;;;;;8.87;73.57;100818.31;5125402;27;20039;-70
2021/10/30 02:25:25;;;;;;;51.78;25.33;;;;;;;8.39;75.55;100823.09;5117313;28;20100;-70
2021/10/30 02:27:51;;;;;;;48.88;25.92;;;;;;;8.37;75.68;100814.47;5125395;27;20113;-71
2021/10/30 02:30:17;;;;;;;51.13;25.52;;;;;;;8.41;76.80;100815.91;5117031;27;20028;-71
2021/10/30 02:32:43;;;;;;;49.53;26.42;;;;;;;8.71;75.55;100819.69;5148520;27;20187;-71
2021/10/30 02:35:10;;;;;;;45.10;25.58;;;;;;;8.59;75.80;100826.78;5124977;27;20043;-71
2021/10/30 02:37:35;;;;;;;45.97;25.10;;;;;;;8.51;76.22;100826.56;5117222;28;20034;-71
2021/10/30 02:40:01;;;;;;;47.15;24.25;;;;;;;8.83;74.56;100823.97;5116123;28;20023;-71
2021/10/30 02:42:27;;;;;;;63.88;24.77;;;;;;;8.85;73.88;100832.63;5117049;28;20070;-71
2021/10/30 02:44:52;;;;;;;49.67;23.77;;;;;;;8.71;74.57;100827.59;5117140;28;20035;-70
2021/10/30 02:47:18;;;;;;;42.38;23.48;;;;;;;8.60;75.47;100829.31;5117114;28;20031;-70
2021/10/30 02:49:44;;;;;;;47.97;23.90;;;;;;;8.57;75.05;100826.09;5116796;28;20437;-70
2021/10/30 02:52:09;;;;;;;46.85;23.23;;;;;;;8.61;74.98;100831.00;5124903;27;20042;-71
2021/10/30 02:54:35;;;;;;;38.35;22.52;;;;;;;8.60;74.20;100834.59;5117088;28;20034;-71
2021/10/30 02:57:01;;;;;;;46.22;24.30;;;;;;;8.54;74.37;100828.97;5124628;27;20374;-71
2021/10/30 02:59:26;;;;;;;47.67;24.13;;;;;;;8.55;74.06;100831.47;5116666;27;20160;-71
2021/10/30 03:01:52;;;;;;;38.88;23.30;;;;;;;8.63;74.53;100833.50;5116151;28;20277;-71
2021/10/30 03:04:17;;;;;;;40.40;22.90;;;;;;;8.89;73.47;100829.59;5116635;28;20048;-71
2021/10/30 03:06:43;;;;;;;42.03;23.75;;;;;;;8.96;73.04;100816.72;5116348;28;20032;-71
2021/10/30 03:09:09;;;;;;;43.63;21.90;;;;;;;8.64;73.51;100833.38;5124134;27;20028;-71
2021/10/30 03:11:35;;;;;;;41.03;21.80;;;;;;;8.55;73.50;100841.19;5116578;28;20186;-70
2021/10/30 03:14:00;;;;;;;43.80;22.52;;;;;;;8.56;73.44;100843.72;5124074;27;20031;-70
2021/10/30 03:16:26;;;;;;;37.97;21.85;;;;;;;8.66;73.41;100835.06;5116501;28;20028;-71
2021/10/30 03:18:52;;;;;;;38.67;21.67;;;;;;;8.86;72.28;100836.94;5115922;28;20062;-71
2021/10/30 03:21:18;;;;;;;42.35;21.75;;;;;;;8.63;73.32;100836.16;5116463;28;20024;-71
2021/10/30 03:23:43;;;;;;;41.17;22.25;;;;;;;8.76;73.01;100828.06;5116468;28;20047;-71
2021/10/30 03:26:09;;;;;;;40.05;21.23;;;;;;;8.71;73.01;100836.38;5122738;27;20062;-71
2021/10/30 03:28:34;;;;;;;40.55;22.13;;;;;;;8.75;73.04;100843.09;5124184;27;20120;-71
2021/10/30 03:30:59;;;;;;;40.72;21.17;;;;;;;8.76;73.21;100833.34;5123046;27;20131;-71
2021/10/30 03:33:25;;;;;;;38.70;22.13;;;;;;;8.87;72.94;100835.97;5120262;27;20241;-71
2021/10/30 03:35:51;;;;;;;42.20;23.90;;;;;;;8.72;73.02;100829.28;5118142;27;20047;-70
2021/10/30 03:38:16;;;;;;;44.33;23.42;;;;;;;8.62;73.09;100837.94;5115878;28;20055;-70
2021/10/30 03:40:42;;;;;;;42.10;22.48;;;;;;;8.73;73.07;100844.16;5114445;28;20046;-71
2021/10/30 03:43:07;;;;;;;42.05;22.27;;;;;;;9.01;71.50;100840.97;5115896;28;20043;-71
2021/10/30 03:45:33;;;;;;;42.50;22.67;;;;;;;8.81;71.79;100833.81;5124301;27;20302;-71
2021/10/30 03:48:07;;;;;;;43.85;25.13;;;;;;;8.71;72.72;100832.88;5115803;28;20066;-71
2021/10/30 03:50:33;;;;;;;;;;;;;;;8.66;72.89;100835.91;5124421;27;20326;-71
2021/10/30 03:53:00;;;;;;;42.67;21.92;;;;;;;8.74;72.86;100838.75;5115555;28;19986;-71
2021/10/30 03:55:26;;;;;;;37.50;20.48;;;;;;;8.98;71.92;100835.09;5122579;27;20040;-71
2021/10/30 03:57:52;;;;;;;35.65;19.65;;;;;;;8.96;71.51;100827.28;5115708;27;20054;-71
2021/10/30 04:00:17;;;;;;;36.72;20.95;;;;;;;8.99;71.52;100823.56;5122343;27;20321;-70
2021/10/30 04:02:43;;;;;;;37.75;20.60;;;;;;;9.02;71.64;100825.97;5115479;27;20036;-70
2021/10/30 04:05:09;;;;;;;36.67;20.88;;;;;;;9.21;70.57;100832.25;5122272;27;20043;-71
2021/10/30 04:07:34;;;;;;;37.55;20.23;;;;;;;8.98;71.24;100825.38;5115845;27;20257;-71
2021/10/30 04:10:00;;;;;;;39.97;21.08;;;;;;;8.92;71.72;100823.22;5119871;27;20061;-71
2021/10/30 04:12:25;;;;;;;34.00;19.75;;;;;;;8.95;71.59;100829.09;5116193;28;20271;-71
2021/10/30 04:14:51;;;;;;;36.65;18.17;;;;;;;8.77;71.84;100809.47;5121341;27;20039;-71
2021/10/30 04:17:16;;;;;;;37.08;18.80;;;;;;;8.87;71.06;100828.03;5114374;28;20217;-71
2021/10/30 04:19:42;;;;;;;43.63;18.95;;;;;;;8.81;72.63;100833.81;5114676;27;20060;-71
2021/10/30 04:22:07;;;;;;;35.55;18.58;;;;;;;8.83;71.74;100831.91;5118341;28;20349;-71
2021/10/30 04:24:33;;;;;;;33.80;17.70;;;;;;;8.88;71.58;100838.50;5118838;27;20309;-70
2021/10/30 04:26:58;;;;;;;29.38;16.52;;;;;;;8.89;71.53;100832.25;5122953;27;20039;-70
2021/10/30 04:29:25;;;;;;;32.40;17.83;;;;;;;8.85;71.22;100830.81;5117556;28;20026;-71
2021/10/30 04:31:52;;;;;;;36.72;20.23;;;;;;;8.71;71.27;100833.72;5114299;28;20191;-70
2021/10/30 04:34:19;;;;;;;33.35;18.83;;;;;;;8.62;71.73;100837.94;5120646;27;20027;-71
2021/10/30 04:36:49;;;;;;;36.25;20.50;;;;;;;8.62;72.07;100830.03;5123236;27;20027;-71
2021/10/30 04:39:18;;;;;;;44.78;22.13;;;;;;;8.69;72.34;100832.19;5122694;27;20055;-71
2021/10/30 04:41:44;;;;;;;90.47;55.90;;;;;;;8.86;71.14;100829.84;5114809;28;20050;-71
2021/10/30 04:44:10;;;;;;;68.40;39.15;;;;;;;9.06;70.43;100830.03;5121841;27;20035;-71
2021/10/30 04:46:37;;;;;;;46.88;27.13;;;;;;;9.02;70.90;100833.88;5130555;27;20023;-71
2021/10/30 04:49:03;;;;;;;44.33;25.98;;;;;;;9.16;70.94;100838.88;5120889;27;20115;-71
2021/10/30 04:51:28;;;;;;;30.08;16.55;;;;;;;9.11;71.08;100836.59;5114542;28;20031;-70
2021/10/30 04:53:54;;;;;;;28.98;15.80;;;;;;;9.17;71.07;100832.63;5113871;28;20082;-71
2021/10/30 04:56:19;;;;;;;38.50;21.02;;;;;;;9.01;71.10;100830.41;5114461;28;20032;-71
2021/10/30 04:58:45;;;;;;;34.97;17.77;;;;;;;8.84;72.07;100834.41;5114373;28;20032;-71
2021/10/30 05:01:12;;;;;;;35.33;17.90;;;;;;;8.97;71.76;100839.53;5113986;28;20040;-71
2021/10/30 05:03:39;;;;;;;28.38;16.65;;;;;;;9.03;71.68;100841.69;5118172;28;20092;-71
2021/10/30 05:06:04;;;;;;;32.97;16.33;;;;;;;9.10;71.96;100847.31;5122575;28;20063;-71
2021/10/30 05:08:30;;;;;;;39.30;17.65;;;;;;;9.13;71.77;100845.25;5121275;27;20400;-71
2021/10/30 05:10:55;;;;;;;28.83;17.02;;;;;;;9.05;72.49;100836.28;5122442;28;20027;-71
2021/10/30 05:13:21;;;;;;;37.20;17.83;;;;;;;8.87;72.56;100813.03;5116149;28;20040;-70
2021/10/30 05:15:46;;;;;;;35.60;18.67;;;;;;;8.96;73.11;100843.16;5113937;28;20039;-70
2021/10/30 05:18:11;;;;;;;37.88;20.73;;;;;;;8.99;72.55;100850.81;5113559;28;20333;-71
2021/10/30 05:20:37;;;;;;;44.15;22.65;;;;;;;8.92;72.74;100839.06;5121499;28;20023;-71
2021/10/30 05:23:02;;;;;;;45.35;23.13;;;;;;;8.98;72.41;100854.44;5114336;28;20046;-71
2021/10/30 05:25:28;;;;;;;50.15;26.83;;;;;;;8.99;72.24;100855.25;5117477;28;20069;-71
2021/10/30 05:27:53;;;;;;;57.08;27.92;;;;;;;9.08;71.97;100857.16;5117125;27;20321;-71
2021/10/30 05:30:19;;;;;;;62.22;29.02;;;;;;;9.06;72.71;100854.63;5126607;27;20047;-71
2021/10/30 05:32:44;;;;;;;52.42;27.52;;;;;;;9.20;72.04;100857.00;5126605;27;20027;-71
2021/10/30 05:35:10;;;;;;;53.28;26.00;;;;;;;9.28;71.90;100861.66;5126445;27;20049;-71
2021/10/30 05:37:35;;;;;;;56.38;28.38;;;;;;;9.51;71.44;100855.31;5126101;27;20223;-70
2021/10/30 05:40:06;;;;;;;59.85;28.60;;;;;;;9.52;70.94;100850.88;5125048;27;20032;-70
2021/10/30 05:42:35;;;;;;;56.80;27.33;;;;;;;9.68;70.74;100847.78;5119861;27;20040;-70
2021/10/30 05:45:00;;;;;;;43.55;25.20;;;;;;;9.63;71.07;100852.63;5125932;27;20055;-71
2021/10/30 05:47:26;;;;;;;46.58;25.65;;;;;;;9.85;70.04;100849.84;5122398;27;20032;-71
2021/10/30 05:49:52;;;;;;;52.47;26.98;;;;;;;10.02;70.11;100865.09;5121950;27;20301;-71
2021/10/30 05:52:18;;;;;;;46.13;23.85;;;;;;;9.92;70.34;100861.56;5126054;27;20027;-71
2021/10/30 05:54:43;;;;;;;53.45;28.00;;;;;;;9.89;70.74;100869.75;5126001;27;20374;-70
2021/10/30 05:57:11;;;;;;;46.92;28.05;;;;;;;9.64;71.33;100863.06;5126130;27;20225;-70
2021/10/30 05:59:36;;;;;;;41.15;22.48;;;;;;;9.91;70.77;100868.66;5125827;27;20024;-71
2021/10/30 06:02:02;;;;;;;39.72;21.48;;;;;;;10.08;70.01;100872.50;5119379;27;20040;-71
2021/10/30 06:04:27;;;;;;;40.00;21.05;;;;;;;10.32;69.04;100872.25;5117363;28;20321;-71
2021/10/30 06:06:53;;;;;;;39.33;22.58;;;;;;;10.08;70.17;100861.94;5124060;28;20260;-71
2021/10/30 06:09:18;;;;;;;49.10;26.95;;;;;;;10.04;70.44;100860.53;5117764;28;20035;-71
2021/10/30 06:11:44;;;;;;;47.70;31.00;;;;;;;9.74;71.38;100869.25;5126144;27;20189;-70
2021/10/30 06:14:10;;;;;;;46.88;29.25;;;;;;;9.90;71.38;100872.28;5125230;27;20086;-71
2021/10/30 06:16:36;;;;;;;51.17;29.85;;;;;;;10.18;70.42;100877.84;5125716;27;20027;-71
2021/10/30 06:19:03;;;;;;;55.03;31.23;;;;;;;10.08;70.36;100879.63;5117126;28;20048;-71
2021/10/30 06:21:28;;;;;;;51.90;30.45;;;;;;;9.85;71.60;100877.13;5117414;27;20047;-71
2021/10/30 06:23:58;;;;;;;50.83;33.58;;;;;;;9.83;72.13;100878.22;5125105;27;20043;-71
2021/10/30 06:26:23;;;;;;;61.55;37.30;;;;;;;9.89;71.96;100881.19;5122419;27;20080;-71
2021/10/30 06:28:49;;;;;;;54.08;34.13;;;;;;;9.95;73.02;100889.56;5149562;27;20281;-71
2021/10/30 06:31:15;;;;;;;65.32;34.33;;;;;;;10.15;72.40;100876.31;5119993;27;20340;-71
2021/10/30 06:33:41;;;;;;;55.80;32.15;;;;;;;10.13;71.85;100875.59;5125901;27;20101;-71
2021/10/30 06:36:07;;;;;;;51.67;31.80;;;;;;;10.11;71.76;100871.41;5124514;27;20305;-70
2021/10/30 06:38:33;;;;;;;46.90;29.20;;;;;;;10.31;71.46;100878.50;5120270;28;20050;-71
2021/10/30 06:41:01;;;;;;;42.22;25.40;;;;;;;10.46;70.69;100881.66;5116674;28;20031;-71
2021/10/30 06:43:30;;;;;;;58.63;33.35;;;;;;;10.44;71.06;100889.75;5122464;27;20043;-71
2021/10/30 06:45:55;;;;;;;46.53;25.55;;;;;;;10.48;70.37;100887.66;5118377;27;20081;-71
2021/10/30 06:48:21;;;;;;;49.00;26.85;;;;;;;10.58;70.12;100887.69;5123881;27;20043;-71
2021/10/30 06:50:47;;;;;;;37.35;21.27;;;;;;;10.67;70.85;100889.53;5125020;27;20036;-71
2021/10/30 06:53:13;;;;;;;35.38;21.10;;;;;;;11.01;69.80;100888.22;5116934;27;20292;-71
2021/10/30 06:55:38;;;;;;;44.60;20.80;;;;;;;11.15;68.42;100890.47;5115614;27;20053;-71
2021/10/30 06:58:05;;;;;;;35.72;19.17;;;;;;;10.92;68.83;100897.00;5115590;28;20032;-71
2021/10/30 07:00:30;;;;;;;41.50;21.27;;;;;;;11.06;69.09;100891.31;5124785;27;20081;-71
2021/10/30 07:02:56;;;;;;;36.42;19.95;;;;;;;11.26;67.84;100883.38;5124779;27;20121;-70
2021/10/30 07:05:21;;;;;;;42.72;20.52;;;;;;;11.38;67.36;100888.41;5116189;28;20047;-70
2021/10/30 07:07:47;;;;;;;42.50;21.45;;;;;;;11.58;67.15;100883.13;5116303;28;20035;-71
2021/10/30 07:10:13;;;;;;;33.00;19.70;;;;;;;11.42;66.90;100889.81;5116796;28;20036;-71
2021/10/30 07:12:38;;;;;;;37.05;20.45;;;;;;;11.51;66.59;100888.16;5124532;27;20035;-71
2021/10/30 07:15:06;;;;;;;38.83;19.85;;;;;;;11.72;65.88;100890.66;5124426;27;20036;-71
2021/10/30 07:17:32;;;;;;;38.03;23.23;;;;;;;11.79;65.71;100889.97;5116347;28;20056;-71
2021/10/30 07:19:58;;;;;;;34.15;20.02;;;;;;;11.80;65.66;100881.03;5124058;27;20032;-71
2021/10/30 07:22:23;;;;;;;37.20;20.00;;;;;;;12.10;64.78;100887.13;5124354;27;20103;-71
2021/10/30 07:24:49;;;;;;;39.00;22.05;;;;;;;12.22;64.90;100882.47;5124203;27;20028;-71
2021/10/30 07:27:17;;;;;;;33.67;19.83;;;;;;;12.34;64.37;100891.94;5124704;27;20313;-71
2021/10/30 07:29:46;;;;;;;34.75;19.13;;;;;;;12.33;64.00;100891.09;5124718;28;20034;-71
2021/10/30 07:32:12;;;;;;;32.25;17.88;;;;;;;12.44;63.91;100888.25;5116159;28;20035;-71
2021/10/30 07:34:37;;;;;;;33.13;19.15;;;;;;;12.64;63.59;100881.06;5115439;28;20209;-70
2021/10/30 07:37:03;;;;;;;38.85;19.40;;;;;;;12.48;63.65;100896.75;5115850;28;20091;-71
2021/10/30 07:39:29;;;;;;;37.45;18.73;;;;;;;12.47;63.93;100890.63;5115815;28;20037;-71
2021/10/30 07:41:54;;;;;;;32.35;17.83;;;;;;;12.63;63.98;100879.38;5114620;28;20031;-71
2021/10/30 07:44:19;;;;;;;40.10;23.10;;;;;;;12.86;62.29;100879.81;5115170;28;20077;-71
2021/10/30 07:46:45;;;;;;;46.85;28.95;;;;;;;13.11;61.60;100876.44;5122882;27;20094;-71
2021/10/30 07:49:10;;;;;;;39.22;20.60;;;;;;;12.80;62.25;100877.75;5123409;27;20038;-71
2021/10/30 07:51:36;;;;;;;41.63;23.75;;;;;;;12.87;62.45;100883.31;5124144;27;20027;-71
2021/10/30 07:54:01;;;;;;;38.22;23.80;;;;;;;13.13;60.02;100873.63;5120937;27;20040;-71
2021/10/30 07:56:27;;;;;;;37.67;19.80;;;;;;;12.89;62.04;100884.00;5117935;27;20347;-71
2021/10/30 07:58:53;;;;;;;36.65;21.35;;;;;;;13.14;60.96;100882.44;5120429;27;20110;-71
2021/10/30 08:01:18;;;;;;;32.75;20.00;;;;;;;13.32;60.46;100876.16;5118616;28;20276;-71
2021/10/30 08:03:44;;;;;;;35.15;19.23;;;;;;;13.69;60.31;100862.69;5123912;27;20309;-71
2021/10/30 08:06:09;;;;;;;32.40;18.70;;;;;;;13.72;60.01;100872.22;5121372;27;20100;-72
2021/10/30 08:08:35;;;;;;;32.95;19.63;;;;;;;14.47;57.95;100868.03;5115567;28;20031;-71
2021/10/30 08:11:01;;;;;;;30.30;19.30;;;;;;;14.34;58.15;100868.44;5115405;28;20245;-71
2021/10/30 08:13:28;;;;;;;38.00;18.95;;;;;;;14.54;57.99;100863.72;5122910;27;20039;-71
2021/10/30 08:15:53;;;;;;;35.22;19.77;;;;;;;14.91;57.36;100866.03;5123657;27;20027;-71
2021/10/30 08:18:19;;;;;;;32.33;18.35;;;;;;;15.44;55.32;100864.78;5115125;28;20050;-71
2021/10/30 08:20:46;;;;;;;32.78;19.13;;;;;;;14.92;56.67;100858.88;5114829;28;20031;-71
2021/10/30 08:23:11;;;;;;;37.58;18.83;;;;;;;14.96;56.25;100858.38;5123354;27;20081;-71
2021/10/30 08:25:37;;;;;;;28.73;17.38;;;;;;;14.67;58.09;100855.31;5123079;27;20032;-71
2021/10/30 08:28:03;;;;;;;26.35;15.63;;;;;;;14.94;58.29;100862.22;5122231;27;20256;-71
2021/10/30 08:30:29;;;;;;;25.27;14.18;;;;;;;15.02;57.67;100863.06;5122606;27;20031;-70
2021/10/30 08:32:55;;;;;;;29.17;16.83;;;;;;;15.01;57.56;100864.06;5115600;27;20027;-71
2021/10/30 08:35:21;;;;;;;26.25;15.70;;;;;;;14.83;58.00;100854.53;5121550;27;20035;-71
2021/10/30 08:37:46;;;;;;;32.50;17.58;;;;;;;14.96;57.69;100852.22;5114359;28;20263;-71
2021/10/30 08:40:13;;;;;;;27.70;15.73;;;;;;;14.37;59.42;100860.13;5116871;27;20036;-71
2021/10/30 08:42:48;;;;;;;42.80;22.00;;;;;;;14.21;61.08;100853.88;5122764;28;20049;-71
2021/10/30 08:45:14;;;;;;;33.97;18.67;;;;;;;14.22;61.14;100842.22;5114598;28;20337;-71
2021/10/30 08:47:41;;;;;;;38.90;19.75;;;;;;;14.44;60.70;100847.03;5114099;28;20046;-71
2021/10/30 08:50:07;;;;;;;29.25;17.95;;;;;;;14.46;60.77;100846.88;5114149;28;20031;-71
2021/10/30 08:52:33;;;;;;;29.23;17.83;;;;;;;14.73;59.42;100848.50;5121063;27;20041;-71
2021/10/30 08:55:03;;;;;;;32.65;18.38;;;;;;;14.98;57.99;100847.56;5115214;27;20024;-71
2021/10/30 08:57:28;;;;;;;44.95;22.30;;;;;;;15.01;58.70;100847.22;5122543;27;20032;-71
2021/10/30 08:59:54;;;;;;;32.78;21.30;;;;;;;14.90;59.25;100831.53;5121925;27;20263;-71
2021/10/30 09:02:28;;;;;;;36.90;21.17;;;;;;;15.20;59.05;100846.09;5122438;28;20103;-71
2021/10/30 09:05:16;;;;;;;;;;;;;;;15.30;58.66;100842.25;5121316;28;20046;-72
2021/10/30 09:07:43;;;;;;;31.33;18.02;;;;;;;15.28;58.57;100848.75;5130070;27;19961;-71
2021/10/30 09:10:13;;;;;;;33.40;18.73;;;;;;;15.12;59.09;100841.56;5122847;28;20276;-72
2021/10/30 09:12:53;;;;;;;31.50;17.42;;;;;;;15.00;59.77;100840.22;5122224;28;20031;-71
2021/10/30 09:15:36;;;;;;;31.60;19.15;;;;;;;15.10;59.10;100838.25;5113286;28;20213;-71
2021/10/30 09:18:04;;;;;;;32.78;18.02;;;;;;;15.23;58.22;100824.41;5113637;28;20275;-71
2021/10/30 09:20:33;;;;;;;46.65;24.15;;;;;;;15.19;59.23;100839.09;5122229;28;20043;-71
2021/10/30 09:22:58;;;;;;;38.75;20.75;;;;;;;15.13;59.54;100832.56;5121876;28;20028;-71
2021/10/30 09:25:24;;;;;;;47.22;24.23;;;;;;;15.22;58.83;100831.59;5122587;28;20256;-71
2021/10/30 09:27:51;;;;;;;35.80;19.15;;;;;;;15.17;58.97;100838.41;5122239;28;20034;-71
2021/10/30 09:30:19;;;;;;;39.65;24.55;;;;;;;14.95;59.79;100830.06;5122310;28;20028;-71
2021/10/30 09:33:09;;;;;;;46.60;23.50;;;;;;;14.67;60.66;100824.16;5122859;28;20290;-71
2021/10/30 09:35:42;;;;;;;32.40;16.73;;;;;;;14.54;61.36;100815.75;5114038;28;20055;-72
2021/10/30 09:38:35;;;;;;;27.75;17.20;;;;;;;14.90;59.78;100810.22;5121260;28;20198;-72
2021/10/30 09:41:04;;;;;;;23.55;13.75;;;;;;;15.06;60.55;100806.72;5114060;28;20121;-71
2021/10/30 09:43:29;;;;;;;14.50;8.55;;;;;;;15.03;60.13;100805.22;5114148;28;20098;-71
2021/10/30 09:46:03;;;;;;;23.30;10.27;;;;;;;15.13;59.08;100789.06;5122158;28;20093;-71
2021/10/30 09:48:31;;;;;;;23.48;11.30;;;;;;;14.92;60.65;100795.72;5121866;28;20092;-71
2021/10/30 09:50:59;;;;;;;16.52;10.23;;;;;;;14.90;60.62;100787.03;5121414;28;20038;-73
2021/10/30 09:53:34;;;;;;;15.57;9.00;;;;;;;15.21;60.43;100786.38;5119394;27;20032;-72
2021/10/30 09:56:19;;;;;;;15.00;8.60;;;;;;;15.31;59.13;100779.88;5120223;28;20026;-72
2021/10/30 09:58:47;;;;;;;13.43;8.57;;;;;;;15.13;58.02;100786.38;5117999;28;20328;-71
2021/10/30 10:01:18;;;;;;;13.70;8.48;;;;;;;15.25;58.55;100772.56;5122618;28;20305;-72
2021/10/30 10:03:46;;;;;;;16.85;8.73;;;;;;;15.39;57.57;100770.22;5122569;28;20031;-71
2021/10/30 10:06:14;;;;;;;15.10;7.00;;;;;;;15.30;57.00;100764.88;5121478;27;20093;-72
2021/10/30 10:08:44;;;;;;;10.00;5.88;;;;;;;15.10;57.48;100763.56;5121476;28;20031;-71
2021/10/30 10:11:12;;;;;;;8.95;5.13;;;;;;;14.97;55.23;100755.22;5124235;27;20042;-71
2021/10/30 10:13:40;;;;;;;9.65;5.00;;;;;;;14.84;55.20;100747.69;5125503;27;20027;-71
2021/10/30 10:16:09;;;;;;;23.77;12.18;;;;;;;15.20;55.79;100748.22;5126592;27;20038;-72
2021/10/30 10:18:35;;;;;;;9.27;5.85;;;;;;;15.39;54.95;100748.84;5125314;27;20188;-71
2021/10/30 10:21:02;;;;;;;8.50;6.03;;;;;;;15.45;55.46;100740.19;5120465;28;20067;-71
2021/10/30 10:23:28;;;;;;;13.30;5.53;;;;;;;15.41;55.87;100749.53;5123219;28;20020;-71
2021/10/30 10:25:55;;;;;;;8.77;4.70;;;;;;;15.31;53.68;100744.38;5124140;28;20034;-71
2021/10/30 10:28:36;;;;;;;8.88;3.80;;;;;;;15.04;49.77;100745.53;5122625;28;20046;-71
2021/10/30 10:31:22;;;;;;;10.20;4.82;;;;;;;15.00;51.89;100747.72;5125631;27;20031;-71
2021/10/30 10:34:07;;;;;;;6.93;4.20;;;;;;;14.90;52.88;100736.38;5122186;28;20035;-71
2021/10/30 10:36:33;;;;;;;8.35;4.82;;;;;;;14.72;55.18;100738.34;5122544;28;20059;-72
2021/10/30 10:38:58;;;;;;;14.20;6.38;;;;;;;14.94;54.36;100734.22;5124068;28;20301;-72
2021/10/30 10:41:44;;;;;;;9.48;5.45;;;;;;;14.73;55.64;100732.03;5124115;28;20040;-72
2021/10/30 10:44:25;;;;;;;10.10;4.65;;;;;;;14.56;54.13;100728.47;5123224;28;20039;-72
2021/10/30 10:46:53;;;;;;;9.15;3.50;;;;;;;14.76;53.08;100728.19;5123846;28;20034;-71
2021/10/30 10:49:30;;;;;;;11.77;4.63;;;;;;;14.97;53.59;100721.38;5123544;28;20035;-71
2021/10/30 10:52:24;;;;;;;11.95;5.40;;;;;;;14.71;53.66;100718.03;5123651;28;20032;-72
2021/10/30 10:54:52;;;;;;;10.02;4.97;;;;;;;14.82;54.16;100715.03;5123604;28;20043;-72
2021/10/30 10:57:35;;;;;;;10.15;4.18;;;;;;;14.82;53.51;100704.38;5123472;28;20038;-72
2021/10/30 11:00:04;;;;;;;7.20;2.90;;;;;;;14.93;49.71;100709.38;5123330;28;20047;-72
2021/10/30 11:02:32;;;;;;;5.90;3.50;;;;;;;14.77;50.17;100706.69;5123809;28;20374;-72
2021/10/30 11:05:06;;;;;;;9.10;2.88;;;;;;;14.57;51.23;100708.84;5124216;27;20039;-72
2021/10/30 11:07:32;;;;;;;6.75;3.53;;;;;;;14.67;51.92;100704.19;5121905;28;20027;-72
2021/10/30 11:10:01;;;;;;;7.32;3.58;;;;;;;14.90;52.13;100698.22;5123595;27;20073;-71
2021/10/30 11:12:28;;;;;;;7.78;3.58;;;;;;;14.92;51.31;100698.88;5123696;27;20282;-71
2021/10/30 11:15:06;;;;;;;7.15;3.75;;;;;;;15.42;50.59;100700.47;5123410;27;20028;-71
2021/10/30 11:17:49;;;;;;;13.02;4.30;;;;;;;15.43;50.85;100697.63;5124519;27;20027;-72